createdAt,value
2024-05-09T00:01:55.647Z,18.10
2024-05-09T00:04:25.849Z,16.83
2024-05-09T00:06:58.669Z,8.65
2024-05-09T00:09:28.842Z,13.32
2024-05-09T00:11:59.091Z,12.90
2024-05-09T00:14:29.392Z,14.75
2024-05-09T00:16:59.589Z,11.85
2024-05-09T00:19:29.862Z,14.18
2024-05-09T00:22:02.762Z,16.38
2024-05-09T00:24:33.074Z,12.48
2024-05-09T00:27:03.303Z,8.77
2024-05-09T00:29:33.739Z,12.93
2024-05-09T00:32:04.158Z,11.98
2024-05-09T00:34:34.445Z,10.93
2024-05-09T00:37:07.439Z,9.93
2024-05-09T00:39:37.589Z,12.40
2024-05-09T00:42:08.106Z,7.82
2024-05-09T00:44:38.274Z,12.50
2024-05-09T00:47:08.719Z,8.20
2024-05-09T00:49:39.265Z,9.13
2024-05-09T00:52:12.668Z,7.60
2024-05-09T00:54:42.905Z,8.70
2024-05-09T00:57:13.075Z,9.43
2024-05-09T00:59:43.925Z,13.93
2024-05-09T01:02:14.489Z,18.52
2024-05-09T01:04:44.873Z,11.38
2024-05-09T01:07:17.767Z,9.80
2024-05-09T01:09:47.897Z,8.07
2024-05-09T01:12:18.212Z,10.43
2024-05-09T01:14:48.562Z,10.05
2024-05-09T01:17:18.813Z,7.78
2024-05-09T01:19:49.488Z,7.95
2024-05-09T01:22:22.683Z,7.32
2024-05-09T01:24:55.502Z,6.85
2024-05-09T01:27:25.975Z,6.53
2024-05-09T01:29:56.331Z,6.65
2024-05-09T01:32:26.690Z,7.10
2024-05-09T01:34:56.989Z,5.85
2024-05-09T01:37:27.186Z,6.32
2024-05-09T01:39:59.992Z,5.53
2024-05-09T01:42:30.136Z,5.38
2024-05-09T01:45:00.302Z,5.28
2024-05-09T01:47:30.839Z,5.13
2024-05-09T01:50:01.255Z,4.85
2024-05-09T01:52:31.581Z,5.53
2024-05-09T01:55:05.658Z,5.57
2024-05-09T01:57:36.745Z,4.75
2024-05-09T02:00:07.979Z,5.03
2024-05-09T02:02:38.350Z,4.57
2024-05-09T02:05:09.058Z,5.30
2024-05-09T02:07:39.426Z,4.72
2024-05-09T02:10:20.136Z,4.85
2024-05-09T02:12:53.467Z,4.78
2024-05-09T02:15:23.619Z,5.07
2024-05-09T02:17:54.075Z,4.95
2024-05-09T02:20:33.453Z,6.32
2024-05-09T02:23:07.098Z,5.70
2024-05-09T02:25:40.168Z,5.93
2024-05-09T02:28:10.856Z,5.15
2024-05-09T02:30:42.369Z,5.88
2024-05-09T02:33:14.381Z,5.50
2024-05-09T02:35:45.143Z,5.25
2024-05-09T02:38:13.529Z,6.32
2024-05-09T02:40:48.210Z,4.50
2024-05-09T02:43:15.808Z,4.82
2024-05-09T02:45:45.948Z,5.97
2024-05-09T02:48:14.286Z,4.35
2024-05-09T02:50:45.093Z,4.90
2024-05-09T02:53:13.332Z,4.68
2024-05-09T02:55:46.493Z,4.25
2024-05-09T02:58:14.081Z,5.82
2024-05-09T03:00:44.417Z,4.65
2024-05-09T03:03:14.428Z,5.38
2024-05-09T03:05:46.317Z,3.40
2024-05-09T03:08:14.452Z,6.05
2024-05-09T03:10:47.420Z,4.18
2024-05-09T03:13:16.167Z,3.65
2024-05-09T03:15:46.847Z,3.80
2024-05-09T03:18:14.597Z,3.88
2024-05-09T03:20:45.601Z,3.65
2024-05-09T03:23:13.421Z,4.65
2024-05-09T03:25:43.772Z,4.07
2024-05-09T03:28:14.055Z,6.50
2024-05-09T03:30:44.516Z,3.80
2024-05-09T03:33:13.340Z,5.53
2024-05-09T03:35:44.425Z,4.60
2024-05-09T03:38:14.725Z,6.23
2024-05-09T03:40:48.353Z,3.63
2024-05-09T03:43:22.372Z,3.60
2024-05-09T03:45:50.423Z,4.00
2024-05-09T03:48:20.798Z,3.40
2024-05-09T03:50:48.478Z,3.47
2024-05-09T03:53:18.886Z,3.63
2024-05-09T03:55:46.491Z,3.67
2024-05-09T03:58:16.665Z,4.27
2024-05-09T04:00:46.957Z,3.63
2024-05-09T04:03:17.357Z,5.23
2024-05-09T04:05:45.044Z,3.20
2024-05-09T04:08:15.793Z,3.83
2024-05-09T04:10:43.675Z,4.53
2024-05-09T04:13:14.060Z,2.93
2024-05-09T04:15:41.602Z,5.00
2024-05-09T04:18:14.435Z,4.77
2024-05-09T04:20:42.272Z,3.63
2024-05-09T04:23:15.070Z,4.80
2024-05-09T04:25:43.417Z,3.93
2024-05-09T04:28:13.762Z,4.57
2024-05-09T04:30:42.227Z,4.17
2024-05-09T04:33:15.814Z,4.33
2024-05-09T04:35:44.234Z,3.37
2024-05-09T04:38:15.428Z,4.10
2024-05-09T04:40:43.568Z,6.20
2024-05-09T04:43:19.153Z,5.70
2024-05-09T04:45:46.828Z,4.27
2024-05-09T04:48:19.821Z,4.27
2024-05-09T04:50:47.536Z,4.30
2024-05-09T04:53:18.978Z,4.77
2024-05-09T04:55:46.667Z,4.00
2024-05-09T04:58:16.907Z,4.30
2024-05-09T05:00:44.516Z,5.63
2024-05-09T05:03:16.246Z,4.17
2024-05-09T05:05:47.214Z,4.13
2024-05-09T05:08:18.544Z,3.93
2024-05-09T05:10:48.110Z,4.63
2024-05-09T05:13:20.647Z,4.47
2024-05-09T05:15:49.684Z,4.63
2024-05-09T05:18:20.255Z,5.43
2024-05-09T05:20:51.321Z,4.10
2024-05-09T05:23:22.577Z,5.43
2024-05-09T05:25:51.431Z,5.43
2024-05-09T05:28:22.118Z,5.88
2024-05-09T05:30:50.412Z,5.68
2024-05-09T05:33:22.394Z,5.60
2024-05-09T05:35:53.104Z,6.05
2024-05-09T05:38:26.284Z,6.03
2024-05-09T05:40:55.948Z,7.55
2024-05-09T05:43:26.197Z,5.85
2024-05-09T05:45:53.729Z,9.85
2024-05-09T05:48:24.068Z,6.07
2024-05-09T05:50:54.398Z,6.15
2024-05-09T05:53:24.588Z,8.40
2024-05-09T05:55:52.366Z,6.70
2024-05-09T05:58:23.008Z,7.07
2024-05-09T06:00:53.693Z,5.80
2024-05-09T06:03:24.071Z,8.02
2024-05-09T06:05:54.297Z,6.38
2024-05-09T06:08:27.127Z,6.90
2024-05-09T06:10:56.476Z,5.90
2024-05-09T06:13:26.664Z,5.43
2024-05-09T06:15:54.665Z,5.82
2024-05-09T06:18:25.126Z,6.65
2024-05-09T06:20:55.469Z,6.43
2024-05-09T06:23:25.942Z,5.85
2024-05-09T06:25:53.564Z,7.45
2024-05-09T06:28:23.819Z,6.57
2024-05-09T06:30:51.595Z,9.10
2024-05-09T06:33:21.936Z,7.00
2024-05-09T06:35:49.690Z,9.52
2024-05-09T06:38:22.590Z,6.78
2024-05-09T06:40:50.180Z,6.90
2024-05-09T06:43:20.389Z,8.30
2024-05-09T06:45:48.719Z,6.75
2024-05-09T06:48:21.576Z,8.10
2024-05-09T06:50:49.979Z,11.15
2024-05-09T06:53:24.233Z,7.03
2024-05-09T06:55:51.952Z,6.18
2024-05-09T06:58:22.131Z,7.35
2024-05-09T07:00:49.744Z,6.65
2024-05-09T07:03:20.237Z,7.57
2024-05-09T07:05:49.250Z,6.75
2024-05-09T07:08:22.686Z,7.15
2024-05-09T07:10:50.457Z,6.07
2024-05-09T07:13:20.775Z,6.85
2024-05-09T07:15:48.342Z,9.45
2024-05-09T07:18:20.291Z,7.65
2024-05-09T07:20:49.226Z,5.32
2024-05-09T07:23:23.075Z,4.88
2024-05-09T07:25:50.753Z,4.75
2024-05-09T07:28:21.580Z,3.90
2024-05-09T07:30:49.306Z,3.60
2024-05-09T07:33:21.767Z,4.03
2024-05-09T07:35:50.810Z,3.45
2024-05-09T07:38:24.251Z,5.07
2024-05-09T07:40:51.943Z,4.38
2024-05-09T07:43:22.156Z,4.38
2024-05-09T07:45:53.717Z,6.90
2024-05-09T07:50:00.251Z,3.78
2024-05-09T07:53:53.288Z,4.05
2024-05-09T07:56:24.347Z,3.97
2024-05-09T07:58:56.479Z,4.78
2024-05-09T08:01:26.601Z,4.00
2024-05-09T08:03:57.624Z,4.18
2024-05-09T08:06:25.664Z,4.30
2024-05-09T08:09:02.800Z,4.75
2024-05-09T08:11:33.191Z,4.15
2024-05-09T08:14:03.448Z,5.05
2024-05-09T08:16:31.044Z,4.72
2024-05-09T08:19:01.322Z,4.20
2024-05-09T08:21:29.884Z,3.92
2024-05-09T08:24:02.932Z,4.60
2024-05-09T08:26:30.551Z,4.45
2024-05-09T08:29:00.779Z,4.70
2024-05-09T08:31:28.579Z,5.65
2024-05-09T08:33:58.909Z,4.80
2024-05-09T08:36:26.877Z,4.63
2024-05-09T08:38:57.103Z,5.70
2024-05-09T08:41:28.813Z,6.30
2024-05-09T08:43:58.985Z,5.68
2024-05-09T08:46:27.553Z,5.13
2024-05-09T08:48:59.082Z,5.25
2024-05-09T08:51:27.114Z,5.32
2024-05-09T08:53:57.558Z,4.57
2024-05-09T08:56:29.409Z,4.85
2024-05-09T08:59:00.478Z,5.13
2024-05-09T09:01:29.196Z,5.30
2024-05-09T09:03:59.521Z,6.60
2024-05-09T09:06:27.340Z,5.18
2024-05-09T09:08:57.805Z,6.00
2024-05-09T09:11:28.104Z,5.22
2024-05-09T09:13:58.317Z,4.95
2024-05-09T09:16:32.939Z,5.72
2024-05-09T09:19:03.304Z,6.53
2024-05-09T09:21:31.140Z,5.82
2024-05-09T09:24:01.395Z,6.28
2024-05-09T09:26:33.742Z,7.93
2024-05-09T09:29:04.519Z,4.68
2024-05-09T09:31:32.275Z,5.10
2024-05-09T09:34:02.741Z,5.38
2024-05-09T09:36:31.473Z,4.70
2024-05-09T09:39:01.813Z,5.63
2024-05-09T09:41:30.746Z,6.18
2024-05-09T09:44:04.471Z,5.57
2024-05-09T09:46:32.472Z,4.82
2024-05-09T09:49:02.902Z,4.65
2024-05-09T09:51:30.625Z,6.15
2024-05-09T09:54:01.109Z,4.78
2024-05-09T09:56:30.415Z,5.05
2024-05-09T09:59:03.700Z,5.15
2024-05-09T10:01:31.309Z,4.50
2024-05-09T10:04:01.729Z,4.90
2024-05-09T10:06:30.110Z,4.82
2024-05-09T10:09:00.673Z,5.00
2024-05-09T10:11:31.725Z,5.40
2024-05-09T10:14:06.178Z,6.13
2024-05-09T10:16:33.895Z,6.47
2024-05-09T10:19:04.210Z,5.35
2024-05-09T10:21:31.935Z,5.90
2024-05-09T10:24:02.582Z,4.78
2024-05-09T10:26:34.125Z,4.47
2024-05-09T10:29:13.947Z,5.25
2024-05-09T10:31:42.672Z,4.78
2024-05-09T10:34:19.807Z,4.93
2024-05-09T10:36:52.983Z,4.28
2024-05-09T10:39:23.610Z,5.57
2024-05-09T10:41:51.150Z,5.97
2024-05-09T10:44:25.078Z,4.43
2024-05-09T10:46:54.860Z,4.40
2024-05-09T10:49:25.812Z,5.25
2024-05-09T10:51:53.728Z,3.83
2024-05-09T10:54:23.917Z,4.63
2024-05-09T10:56:57.073Z,4.50
2024-05-09T10:59:35.946Z,4.20
2024-05-09T11:02:04.568Z,5.28
2024-05-09T11:04:36.341Z,3.95
2024-05-09T11:07:05.722Z,4.30
2024-05-09T11:09:36.447Z,5.30
2024-05-09T11:12:04.364Z,4.50
2024-05-09T11:14:37.274Z,4.00
2024-05-09T11:17:06.376Z,5.22
2024-05-09T11:19:37.348Z,4.68
2024-05-09T11:22:05.363Z,4.05
2024-05-09T11:24:35.850Z,4.13
2024-05-09T11:27:04.330Z,4.75
2024-05-09T11:29:44.807Z,3.95
2024-05-09T11:32:15.008Z,4.03
2024-05-09T11:34:45.601Z,3.67
2024-05-09T11:37:13.969Z,3.72
2024-05-09T11:39:44.422Z,5.43
2024-05-09T11:42:12.110Z,4.93
2024-05-09T11:44:44.874Z,4.13
2024-05-09T11:47:12.459Z,4.63
2024-05-09T11:49:42.756Z,3.97
2024-05-09T11:52:10.417Z,4.00
2024-05-09T11:54:40.688Z,3.80
2024-05-09T11:57:09.654Z,5.68
2024-05-09T11:59:39.801Z,4.95
2024-05-09T12:02:13.004Z,4.35
2024-05-09T12:04:40.796Z,3.97
2024-05-09T12:07:13.037Z,4.55
2024-05-09T12:09:40.730Z,6.05
2024-05-09T12:12:11.010Z,4.80
2024-05-09T12:14:38.625Z,4.05
2024-05-09T12:17:09.349Z,5.20
2024-05-09T12:19:39.631Z,5.57
2024-05-09T12:22:10.079Z,4.18
2024-05-09T12:24:37.883Z,5.65
2024-05-09T12:27:08.546Z,3.75
2024-05-09T12:29:38.697Z,4.20
2024-05-09T12:32:09.460Z,4.28
2024-05-09T12:34:39.838Z,4.38
2024-05-09T12:37:10.335Z,5.40
2024-05-09T12:39:38.059Z,5.97
2024-05-09T12:42:09.773Z,4.70
2024-05-09T12:44:38.596Z,6.18
2024-05-09T12:47:08.752Z,5.78
2024-05-09T12:49:36.384Z,4.40
2024-05-09T12:52:09.906Z,8.48
2024-05-09T12:54:37.646Z,9.82
2024-05-09T12:57:08.099Z,8.98
2024-05-09T12:59:35.658Z,5.70
2024-05-09T13:02:06.069Z,5.13
2024-05-09T13:04:34.018Z,8.30
2024-05-09T13:07:06.399Z,6.03
2024-05-09T13:09:37.947Z,6.15
2024-05-09T13:12:08.512Z,4.38
2024-05-09T13:14:36.046Z,5.18
2024-05-09T13:17:06.263Z,5.32
2024-05-09T13:19:34.062Z,4.20
2024-05-09T13:22:04.409Z,4.22
2024-05-09T13:24:31.964Z,4.75
2024-05-09T13:27:04.772Z,6.90
2024-05-09T13:29:32.456Z,6.13
2024-05-09T13:32:02.681Z,8.13
2024-05-09T13:34:30.360Z,4.45
2024-05-09T13:37:00.664Z,5.07
2024-05-09T13:39:28.233Z,6.43
2024-05-09T13:41:58.412Z,5.17
2024-05-09T13:44:28.562Z,5.30
2024-05-09T13:46:58.736Z,4.88
2024-05-09T13:49:26.368Z,4.93
2024-05-09T13:51:56.638Z,4.72
2024-05-09T13:54:24.258Z,4.47
2024-05-09T13:56:54.986Z,4.88
2024-05-09T13:59:22.513Z,4.18
2024-05-09T14:01:55.681Z,4.25
2024-05-09T14:04:23.537Z,6.13
2024-05-09T14:06:54.026Z,5.30
2024-05-09T14:09:21.626Z,4.35
2024-05-09T14:11:51.856Z,4.65
2024-05-09T14:14:19.397Z,6.25
2024-05-09T14:16:49.698Z,4.10
2024-05-09T14:19:20.078Z,4.30
2024-05-09T14:21:50.299Z,4.00
2024-05-09T14:24:17.852Z,4.18
2024-05-09T14:26:48.660Z,4.10
2024-05-09T14:29:16.274Z,5.70
2024-05-09T14:31:47.401Z,4.63
2024-05-09T14:34:15.223Z,4.43
2024-05-09T14:36:48.330Z,4.95
2024-05-09T14:39:15.930Z,4.82
2024-05-09T14:41:46.649Z,5.90
2024-05-09T14:44:14.190Z,4.63
2024-05-09T14:46:44.616Z,6.63
2024-05-09T14:49:15.200Z,5.68
2024-05-09T14:51:48.334Z,4.22
2024-05-09T14:54:18.571Z,4.85
2024-05-09T14:56:46.113Z,4.10
2024-05-09T14:59:16.407Z,4.60
2024-05-09T15:01:44.003Z,3.97
2024-05-09T15:04:14.382Z,4.25
2024-05-09T15:06:42.053Z,4.30
2024-05-09T15:09:14.888Z,3.97
2024-05-09T15:11:44.014Z,4.25
2024-05-09T15:14:14.196Z,6.78
2024-05-09T15:16:41.725Z,4.03
2024-05-09T15:19:12.236Z,5.72
2024-05-09T15:21:39.944Z,4.97
2024-05-09T15:24:10.227Z,4.32
2024-05-09T15:26:40.454Z,3.80
2024-05-09T15:29:10.690Z,4.40
2024-05-09T15:31:38.384Z,3.83
2024-05-09T15:34:08.710Z,4.60
2024-05-09T15:36:36.521Z,3.97
2024-05-09T15:39:06.825Z,3.97
2024-05-09T15:41:34.425Z,4.05
2024-05-09T15:44:07.310Z,4.10
2024-05-09T15:46:35.268Z,3.83
2024-05-09T15:49:05.898Z,3.80
2024-05-09T15:51:34.810Z,4.40
2024-05-09T15:54:05.617Z,4.03
2024-05-09T15:56:35.860Z,4.75
2024-05-09T15:59:06.104Z,3.83
2024-05-09T16:01:36.348Z,4.90
2024-05-09T16:04:04.146Z,4.57
2024-05-09T16:06:34.515Z,4.85
2024-05-09T16:09:02.142Z,3.90
2024-05-09T16:11:32.467Z,3.80
2024-05-09T16:14:00.077Z,4.93
2024-05-09T16:16:33.006Z,3.75
2024-05-09T16:19:00.660Z,3.88
2024-05-09T16:21:30.939Z,6.13
2024-05-09T16:23:59.673Z,4.78
2024-05-09T16:26:29.949Z,4.45
2024-05-09T16:28:57.563Z,4.20
2024-05-09T16:31:28.172Z,3.38
2024-05-09T16:33:58.646Z,4.30
2024-05-09T16:36:28.951Z,5.10
2024-05-09T16:38:56.472Z,4.82
2024-05-09T16:41:26.673Z,5.60
2024-05-09T16:43:54.206Z,4.70
2024-05-09T16:46:24.469Z,3.95
2024-05-09T16:48:52.255Z,5.20
2024-05-09T16:51:25.892Z,4.45
2024-05-09T16:53:53.507Z,4.57
2024-05-09T16:56:23.880Z,5.30
2024-05-09T16:58:51.420Z,5.20
2024-05-09T17:01:21.687Z,4.13
2024-05-09T17:03:50.381Z,4.03
2024-05-09T17:06:20.854Z,4.55
2024-05-09T17:08:51.055Z,3.92
2024-05-09T17:11:21.237Z,3.63
2024-05-09T17:13:51.398Z,4.20
2024-05-09T17:16:22.131Z,4.30
2024-05-09T17:18:52.646Z,3.75
2024-05-09T17:21:20.184Z,4.32
2024-05-09T17:23:54.491Z,4.93
2024-05-09T17:26:22.060Z,6.38
2024-05-09T17:28:52.299Z,4.85
2024-05-09T17:31:19.956Z,5.22
2024-05-09T17:33:50.430Z,6.88
2024-05-09T17:36:19.847Z,5.60
2024-05-09T17:38:50.388Z,5.57
2024-05-09T17:41:23.187Z,8.07
2024-05-09T17:43:50.706Z,5.35
2024-05-09T17:46:20.923Z,7.47
2024-05-09T17:48:48.558Z,6.35
2024-05-09T17:51:18.964Z,6.40
2024-05-09T17:53:47.967Z,9.52
2024-05-09T17:56:18.564Z,5.03
2024-05-09T17:58:49.072Z,5.97
2024-05-09T18:01:19.345Z,5.30
2024-05-09T18:03:48.663Z,6.82
2024-05-09T18:06:19.148Z,5.85
2024-05-09T18:08:46.676Z,6.05
2024-05-09T18:11:17.557Z,6.82
2024-05-09T18:13:48.820Z,8.55
2024-05-09T18:16:19.283Z,7.90
2024-05-09T18:18:47.182Z,5.15
2024-05-09T18:21:17.467Z,6.93
2024-05-09T18:23:44.989Z,7.20
2024-05-09T18:26:15.300Z,6.22
2024-05-09T18:28:42.852Z,6.43
2024-05-09T18:31:15.758Z,5.18
2024-05-09T18:33:43.643Z,6.80
2024-05-09T18:36:13.911Z,5.65
2024-05-09T18:38:41.447Z,7.68
2024-05-09T18:41:11.674Z,6.00
2024-05-09T18:43:44.958Z,6.35
2024-05-09T18:46:21.336Z,7.15
2024-05-09T18:48:49.619Z,7.20
2024-05-09T18:51:20.049Z,18.20
2024-05-09T18:53:47.914Z,7.40
2024-05-09T18:56:18.410Z,7.47
2024-05-09T18:58:46.866Z,9.95
2024-05-09T19:01:17.191Z,6.43
2024-05-09T19:03:48.488Z,7.25
2024-05-09T19:06:21.933Z,7.53
2024-05-09T19:08:51.515Z,6.35
2024-05-09T19:11:21.734Z,6.93
2024-05-09T19:13:49.313Z,5.93
2024-05-09T19:16:20.001Z,5.93
2024-05-09T19:18:51.600Z,6.55
2024-05-09T19:21:21.930Z,7.57
2024-05-09T19:23:52.321Z,6.60
2024-05-09T19:26:22.900Z,6.30
2024-05-09T19:28:50.546Z,8.40
2024-05-09T19:31:20.911Z,7.72
2024-05-09T19:33:51.870Z,12.00
2024-05-09T19:36:22.145Z,8.10
2024-05-09T19:38:51.505Z,7.03
2024-05-09T19:41:21.740Z,7.50
2024-05-09T19:43:49.278Z,6.72
2024-05-09T19:46:19.797Z,6.70
2024-05-09T19:48:47.714Z,7.18
2024-05-09T19:51:20.577Z,6.72
2024-05-09T19:53:48.146Z,6.30
2024-05-09T19:56:18.298Z,6.22
2024-05-09T19:58:46.329Z,6.72
2024-05-09T20:01:17.795Z,6.15
2024-05-09T20:03:48.185Z,9.23
2024-05-09T20:06:19.492Z,7.85
2024-05-09T20:08:49.634Z,6.72
2024-05-09T20:11:17.277Z,8.45
2024-05-09T20:13:47.487Z,7.50
2024-05-09T20:16:15.145Z,5.28
2024-05-09T20:18:45.448Z,6.65
2024-05-09T20:21:13.173Z,7.20
2024-05-09T20:23:45.984Z,6.50
2024-05-09T20:26:13.507Z,8.05
2024-05-09T20:28:45.008Z,7.05
2024-05-09T20:31:19.494Z,5.55
2024-05-09T20:33:49.933Z,5.47
2024-05-09T20:36:17.610Z,8.15
2024-05-09T20:38:50.404Z,5.32
2024-05-09T20:41:18.086Z,5.22
2024-05-09T20:43:48.251Z,11.07
2024-05-09T20:46:15.894Z,5.95
2024-05-09T20:48:46.200Z,6.10
2024-05-09T20:51:13.771Z,6.35
2024-05-09T20:53:43.920Z,9.65
2024-05-09T20:56:14.134Z,6.55
2024-05-09T20:58:44.265Z,6.30
2024-05-09T21:01:11.911Z,7.38
2024-05-09T21:03:44.376Z,6.78
2024-05-09T21:06:12.058Z,7.80
2024-05-09T21:08:42.204Z,5.03
2024-05-09T21:11:09.772Z,5.30
2024-05-09T21:13:42.575Z,6.43
2024-05-09T21:16:10.245Z,8.25
2024-05-09T21:18:40.541Z,7.00
2024-05-09T21:21:08.156Z,7.50
2024-05-09T21:23:38.364Z,7.57
2024-05-09T21:26:07.014Z,7.60
2024-05-09T21:28:37.307Z,8.15
2024-05-09T21:31:09.012Z,9.77
2024-05-09T21:33:39.367Z,8.32
2024-05-09T21:36:09.564Z,6.90
2024-05-09T21:38:39.970Z,6.68
2024-05-09T21:41:07.804Z,6.55
2024-05-09T21:43:38.067Z,6.32
2024-05-09T21:46:08.413Z,7.50
2024-05-09T21:48:38.780Z,5.25
2024-05-09T21:51:13.513Z,8.25
2024-05-09T21:53:43.943Z,6.28
2024-05-09T21:56:11.457Z,6.72
2024-05-09T21:58:41.613Z,8.32
2024-05-09T22:01:12.244Z,6.78
2024-05-09T22:03:42.646Z,6.53
2024-05-09T22:06:10.265Z,9.15
2024-05-09T22:08:40.407Z,5.70
2024-05-09T22:11:08.091Z,6.65
2024-05-09T22:13:38.296Z,7.95
2024-05-09T22:16:06.247Z,7.03
2024-05-09T22:18:39.212Z,6.30
2024-05-09T22:21:07.015Z,5.90
2024-05-09T22:23:37.206Z,7.05
2024-05-09T22:26:04.890Z,6.13
2024-05-09T22:28:35.242Z,6.43
2024-05-09T22:31:02.976Z,5.80
2024-05-09T22:33:33.480Z,7.47
2024-05-09T22:36:03.808Z,8.02
2024-05-09T22:38:33.974Z,5.82
2024-05-09T22:41:01.682Z,6.40
2024-05-09T22:43:31.836Z,6.68
2024-05-09T22:45:59.476Z,5.20
2024-05-09T22:48:29.757Z,5.57
2024-05-09T22:50:57.575Z,6.32
2024-05-09T22:53:30.379Z,8.27
2024-05-09T22:55:57.897Z,6.57
2024-05-09T22:58:28.152Z,6.85
2024-05-09T23:00:55.880Z,6.47
2024-05-09T23:03:26.425Z,6.57
2024-05-09T23:05:54.128Z,6.90
2024-05-09T23:08:24.298Z,5.85
2024-05-09T23:10:54.664Z,6.00
2024-05-09T23:13:24.976Z,5.30
2024-05-09T23:15:52.558Z,4.40
2024-05-09T23:18:22.908Z,5.47
2024-05-09T23:20:50.563Z,5.70
2024-05-09T23:23:20.836Z,5.72
2024-05-09T23:25:48.382Z,6.10
2024-05-09T23:28:21.284Z,4.85
2024-05-09T23:30:49.058Z,6.30
2024-05-09T23:33:19.473Z,5.82
2024-05-09T23:35:47.105Z,7.28
2024-05-09T23:38:18.408Z,7.38
2024-05-09T23:40:47.753Z,5.47
2024-05-09T23:43:20.885Z,6.30
2024-05-09T23:45:48.572Z,5.25
2024-05-09T23:48:18.910Z,5.82
2024-05-09T23:50:46.521Z,6.53
2024-05-09T23:53:16.809Z,7.57
2024-05-09T23:55:44.338Z,6.18
2024-05-09T23:58:14.934Z,4.93
